Terminal Aerodrome Forecast
Issued by NWS Atlanta, GA

Home | Current Version | Previous Version | Text Only | Print | Product List | Glossary On
Versions: 1 2 3 4 5 6 7 8 9 10 11 12 13 14 15 16 17
000
FTUS42 KFFC 220834 AAC
TAFMCN
TAF AMD
KMCN 220834Z 2209/2306 00000KT 6SM BR SCT005 BKN060
      TEMPO 2209/2212 3SM BR SCT005 BKN025
     FM221200 00000KT P6SM SCT025 BKN050
     FM221400 34005KT P6SM SCT025 BKN100
     FM221600 35006KT P6SM SCT015 BKN100
     FM221800 35006KT P6SM BKN250
     FM230300 02004KT P6SM BKN035=

USA.gov is the U.S. government's official web portal to all federal, state and local government web resources and services.